sensor_id;sensor_type;location;lat;lon;timestamp;temperature;humidity
7512;DHT22;9999;48.780;9.146;2022-09-23T00:02:13;10.00;99.90
7512;DHT22;9999;48.780;9.146;2022-09-23T00:04:40;10.00;99.90
7512;DHT22;9999;48.780;9.146;2022-09-23T00:07:07;10.00;99.90
7512;DHT22;9999;48.780;9.146;2022-09-23T00:09:34;10.00;99.90
7512;DHT22;9999;48.780;9.146;2022-09-23T00:12:01;10.00;99.90
7512;DHT22;9999;48.780;9.146;2022-09-23T00:14:28;10.00;99.90
7512;DHT22;9999;48.780;9.146;2022-09-23T00:16:56;10.00;99.90
7512;DHT22;9999;48.780;9.146;2022-09-23T00:19:23;10.00;99.90
7512;DHT22;9999;48.780;9.146;2022-09-23T00:21:49;10.00;99.90
7512;DHT22;9999;48.780;9.146;2022-09-23T00:24:16;10.00;99.90
7512;DHT22;9999;48.780;9.146;2022-09-23T00:26:44;9.90;99.90
7512;DHT22;9999;48.780;9.146;2022-09-23T00:29:11;10.00;99.90
7512;DHT22;9999;48.780;9.146;2022-09-23T00:31:37;9.90;99.90
7512;DHT22;9999;48.780;9.146;2022-09-23T00:34:05;9.90;99.90
7512;DHT22;9999;48.780;9.146;2022-09-23T00:36:32;9.90;99.90
7512;DHT22;9999;48.780;9.146;2022-09-23T00:38:59;9.90;99.90
7512;DHT22;9999;48.780;9.146;2022-09-23T00:41:27;9.90;99.90
7512;DHT22;9999;48.780;9.146;2022-09-23T00:43:55;9.80;99.90
7512;DHT22;9999;48.780;9.146;2022-09-23T00:46:25;9.80;99.90
7512;DHT22;9999;48.780;9.146;2022-09-23T00:48:57;9.80;99.90
7512;DHT22;9999;48.780;9.146;2022-09-23T00:51:30;9.80;99.90
7512;DHT22;9999;48.780;9.146;2022-09-23T00:54:00;9.80;99.90
7512;DHT22;9999;48.780;9.146;2022-09-23T00:56:28;9.80;99.90
7512;DHT22;9999;48.780;9.146;2022-09-23T00:58:56;9.80;99.90
7512;DHT22;9999;48.780;9.146;2022-09-23T01:01:24;9.80;99.90
7512;DHT22;9999;48.780;9.146;2022-09-23T01:03:52;9.80;99.90
7512;DHT22;9999;48.780;9.146;2022-09-23T01:06:20;9.70;99.90
7512;DHT22;9999;48.780;9.146;2022-09-23T01:08:48;9.70;99.90
7512;DHT22;9999;48.780;9.146;2022-09-23T01:11:24;9.70;99.90
7512;DHT22;9999;48.780;9.146;2022-09-23T01:14:00;9.60;99.90
7512;DHT22;9999;48.780;9.146;2022-09-23T01:16:40;9.50;99.90
7512;DHT22;9999;48.780;9.146;2022-09-23T01:19:23;9.50;99.90
7512;DHT22;9999;48.780;9.146;2022-09-23T01:21:59;9.40;99.90
7512;DHT22;9999;48.780;9.146;2022-09-23T01:24:59;9.40;99.90
7512;DHT22;9999;48.780;9.146;2022-09-23T01:27:55;9.50;99.90
7512;DHT22;9999;48.780;9.146;2022-09-23T01:30:46;9.50;99.90
7512;DHT22;9999;48.780;9.146;2022-09-23T01:33:19;9.50;99.90
7512;DHT22;9999;48.780;9.146;2022-09-23T01:36:04;9.60;99.90
7512;DHT22;9999;48.780;9.146;2022-09-23T01:38:38;9.60;99.90
7512;DHT22;9999;48.780;9.146;2022-09-23T01:41:13;9.60;99.90
7512;DHT22;9999;48.780;9.146;2022-09-23T01:43:48;9.50;99.90
7512;DHT22;9999;48.780;9.146;2022-09-23T01:46:26;9.40;99.90
7512;DHT22;9999;48.780;9.146;2022-09-23T01:48:57;9.40;99.90
7512;DHT22;9999;48.780;9.146;2022-09-23T01:51:31;9.30;99.90
7512;DHT22;9999;48.780;9.146;2022-09-23T01:54:04;9.30;99.90
7512;DHT22;9999;48.780;9.146;2022-09-23T01:56:37;9.40;99.90
7512;DHT22;9999;48.780;9.146;2022-09-23T01:59:10;9.40;99.90
7512;DHT22;9999;48.780;9.146;2022-09-23T02:01:41;9.30;99.90
7512;DHT22;9999;48.780;9.146;2022-09-23T02:04:13;9.30;99.90
7512;DHT22;9999;48.780;9.146;2022-09-23T02:06:44;9.40;99.90
7512;DHT22;9999;48.780;9.146;2022-09-23T02:09:15;9.30;99.90
7512;DHT22;9999;48.780;9.146;2022-09-23T02:11:45;9.40;99.90
7512;DHT22;9999;48.780;9.146;2022-09-23T02:14:20;9.40;99.90
7512;DHT22;9999;48.780;9.146;2022-09-23T02:16:50;9.40;99.90
7512;DHT22;9999;48.780;9.146;2022-09-23T02:19:23;9.20;99.90
7512;DHT22;9999;48.780;9.146;2022-09-23T02:21:56;9.20;99.90
7512;DHT22;9999;48.780;9.146;2022-09-23T02:24:28;9.20;99.90
7512;DHT22;9999;48.780;9.146;2022-09-23T02:27:01;9.30;99.90
7512;DHT22;9999;48.780;9.146;2022-09-23T02:29:37;9.20;99.90
7512;DHT22;9999;48.780;9.146;2022-09-23T02:32:13;9.10;99.90
7512;DHT22;9999;48.780;9.146;2022-09-23T02:34:45;9.20;99.90
7512;DHT22;9999;48.780;9.146;2022-09-23T02:37:24;9.30;99.90
7512;DHT22;9999;48.780;9.146;2022-09-23T02:39:59;9.30;99.90
7512;DHT22;9999;48.780;9.146;2022-09-23T02:42:33;9.30;99.90
7512;DHT22;9999;48.780;9.146;2022-09-23T02:45:04;9.20;99.90
7512;DHT22;9999;48.780;9.146;2022-09-23T02:47:33;9.20;99.90
7512;DHT22;9999;48.780;9.146;2022-09-23T02:50:01;9.20;99.90
7512;DHT22;9999;48.780;9.146;2022-09-23T02:52:28;9.10;99.90
7512;DHT22;9999;48.780;9.146;2022-09-23T02:54:55;9.10;99.90
7512;DHT22;9999;48.780;9.146;2022-09-23T02:57:22;9.00;99.90
7512;DHT22;9999;48.780;9.146;2022-09-23T02:59:49;9.00;99.90
7512;DHT22;9999;48.780;9.146;2022-09-23T03:02:43;8.90;99.90
7512;DHT22;9999;48.780;9.146;2022-09-23T03:05:20;8.90;99.90
7512;DHT22;9999;48.780;9.146;2022-09-23T03:07:56;8.80;99.90
7512;DHT22;9999;48.780;9.146;2022-09-23T03:10:35;8.80;99.90
7512;DHT22;9999;48.780;9.146;2022-09-23T03:13:12;8.80;99.90
7512;DHT22;9999;48.780;9.146;2022-09-23T03:15:47;8.80;99.90
7512;DHT22;9999;48.780;9.146;2022-09-23T03:18:20;8.80;99.90
7512;DHT22;9999;48.780;9.146;2022-09-23T03:20:52;8.80;99.90
7512;DHT22;9999;48.780;9.146;2022-09-23T03:23:23;8.90;99.90
7512;DHT22;9999;48.780;9.146;2022-09-23T03:25:55;8.90;99.90
7512;DHT22;9999;48.780;9.146;2022-09-23T03:28:23;8.90;99.90
7512;DHT22;9999;48.780;9.146;2022-09-23T03:30:52;8.90;99.90
7512;DHT22;9999;48.780;9.146;2022-09-23T03:33:24;8.80;99.90
7512;DHT22;9999;48.780;9.146;2022-09-23T03:35:54;8.80;99.90
7512;DHT22;9999;48.780;9.146;2022-09-23T03:38:43;8.80;99.90
7512;DHT22;9999;48.780;9.146;2022-09-23T03:41:13;8.80;99.90
7512;DHT22;9999;48.780;9.146;2022-09-23T03:43:42;8.80;99.90
7512;DHT22;9999;48.780;9.146;2022-09-23T03:46:09;8.80;99.90
7512;DHT22;9999;48.780;9.146;2022-09-23T03:48:44;8.70;99.90
7512;DHT22;9999;48.780;9.146;2022-09-23T03:51:19;8.60;99.90
7512;DHT22;9999;48.780;9.146;2022-09-23T03:53:48;8.70;99.90
7512;DHT22;9999;48.780;9.146;2022-09-23T03:56:15;8.60;99.90
7512;DHT22;9999;48.780;9.146;2022-09-23T03:58:42;8.60;99.90
7512;DHT22;9999;48.780;9.146;2022-09-23T04:01:11;8.50;99.90
7512;DHT22;9999;48.780;9.146;2022-09-23T04:03:39;8.40;99.90
7512;DHT22;9999;48.780;9.146;2022-09-23T04:06:07;8.50;99.90
7512;DHT22;9999;48.780;9.146;2022-09-23T04:08:34;8.40;99.90
7512;DHT22;9999;48.780;9.146;2022-09-23T04:11:01;8.30;99.90
7512;DHT22;9999;48.780;9.146;2022-09-23T04:13:28;8.30;99.90
7512;DHT22;9999;48.780;9.146;2022-09-23T04:15:54;8.30;99.90
7512;DHT22;9999;48.780;9.146;2022-09-23T04:18:21;8.30;99.90
7512;DHT22;9999;48.780;9.146;2022-09-23T04:20:48;8.30;99.90
7512;DHT22;9999;48.780;9.146;2022-09-23T04:23:16;8.20;99.90
7512;DHT22;9999;48.780;9.146;2022-09-23T04:25:44;8.20;99.90
7512;DHT22;9999;48.780;9.146;2022-09-23T04:28:11;8.20;99.90
7512;DHT22;9999;48.780;9.146;2022-09-23T04:30:38;8.20;99.90
7512;DHT22;9999;48.780;9.146;2022-09-23T04:33:06;8.20;99.90
7512;DHT22;9999;48.780;9.146;2022-09-23T04:35:32;8.20;99.90
7512;DHT22;9999;48.780;9.146;2022-09-23T04:37:59;8.20;99.90
7512;DHT22;9999;48.780;9.146;2022-09-23T04:40:27;8.20;99.90
7512;DHT22;9999;48.780;9.146;2022-09-23T04:42:54;8.10;99.90
7512;DHT22;9999;48.780;9.146;2022-09-23T04:45:21;8.10;99.90
7512;DHT22;9999;48.780;9.146;2022-09-23T04:47:48;7.90;99.90
7512;DHT22;9999;48.780;9.146;2022-09-23T04:50:15;7.90;99.90
7512;DHT22;9999;48.780;9.146;2022-09-23T04:52:42;7.90;99.90
7512;DHT22;9999;48.780;9.146;2022-09-23T04:55:09;7.80;99.90
7512;DHT22;9999;48.780;9.146;2022-09-23T04:57:37;7.60;99.90
7512;DHT22;9999;48.780;9.146;2022-09-23T05:00:05;7.60;99.90
7512;DHT22;9999;48.780;9.146;2022-09-23T05:02:32;7.60;99.90
7512;DHT22;9999;48.780;9.146;2022-09-23T05:05:00;7.60;99.90
7512;DHT22;9999;48.780;9.146;2022-09-23T05:07:26;7.60;99.90
7512;DHT22;9999;48.780;9.146;2022-09-23T05:09:54;7.60;99.90
7512;DHT22;9999;48.780;9.146;2022-09-23T05:12:21;7.70;99.90
7512;DHT22;9999;48.780;9.146;2022-09-23T05:14:49;7.80;99.90
7512;DHT22;9999;48.780;9.146;2022-09-23T05:17:16;7.90;99.90
7512;DHT22;9999;48.780;9.146;2022-09-23T05:19:43;7.90;99.90
7512;DHT22;9999;48.780;9.146;2022-09-23T05:22:09;7.90;99.90
7512;DHT22;9999;48.780;9.146;2022-09-23T05:24:36;8.00;99.90
7512;DHT22;9999;48.780;9.146;2022-09-23T05:27:03;8.00;99.90
7512;DHT22;9999;48.780;9.146;2022-09-23T05:29:32;8.00;99.90
7512;DHT22;9999;48.780;9.146;2022-09-23T05:32:00;8.00;99.90
7512;DHT22;9999;48.780;9.146;2022-09-23T05:34:27;8.10;99.90
7512;DHT22;9999;48.780;9.146;2022-09-23T05:36:54;8.20;99.90
7512;DHT22;9999;48.780;9.146;2022-09-23T05:39:22;8.20;99.90
7512;DHT22;9999;48.780;9.146;2022-09-23T05:41:49;8.20;99.90
7512;DHT22;9999;48.780;9.146;2022-09-23T05:44:18;8.20;99.90
7512;DHT22;9999;48.780;9.146;2022-09-23T05:46:44;8.20;99.90
7512;DHT22;9999;48.780;9.146;2022-09-23T05:49:13;8.30;99.90
7512;DHT22;9999;48.780;9.146;2022-09-23T05:51:39;8.30;99.90
7512;DHT22;9999;48.780;9.146;2022-09-23T05:54:06;8.20;99.90
7512;DHT22;9999;48.780;9.146;2022-09-23T05:56:33;8.30;99.90
7512;DHT22;9999;48.780;9.146;2022-09-23T05:59:03;8.40;99.90
7512;DHT22;9999;48.780;9.146;2022-09-23T06:01:31;8.30;99.90
7512;DHT22;9999;48.780;9.146;2022-09-23T06:04:01;8.30;99.90
7512;DHT22;9999;48.780;9.146;2022-09-23T06:06:30;8.40;99.90
7512;DHT22;9999;48.780;9.146;2022-09-23T06:08:58;8.40;99.90
7512;DHT22;9999;48.780;9.146;2022-09-23T06:11:25;8.40;99.90
7512;DHT22;9999;48.780;9.146;2022-09-23T06:13:54;8.40;99.90
7512;DHT22;9999;48.780;9.146;2022-09-23T06:16:22;8.40;99.90
7512;DHT22;9999;48.780;9.146;2022-09-23T06:18:48;8.40;99.90
7512;DHT22;9999;48.780;9.146;2022-09-23T06:21:16;8.40;99.90
7512;DHT22;9999;48.780;9.146;2022-09-23T06:23:45;8.40;99.90
7512;DHT22;9999;48.780;9.146;2022-09-23T06:26:13;8.50;99.90
7512;DHT22;9999;48.780;9.146;2022-09-23T06:28:42;8.60;99.90
7512;DHT22;9999;48.780;9.146;2022-09-23T06:31:11;8.60;99.90
7512;DHT22;9999;48.780;9.146;2022-09-23T06:33:38;8.70;99.90
7512;DHT22;9999;48.780;9.146;2022-09-23T06:36:06;8.70;99.90
7512;DHT22;9999;48.780;9.146;2022-09-23T06:38:34;8.70;99.90
7512;DHT22;9999;48.780;9.146;2022-09-23T06:41:05;8.90;99.90
7512;DHT22;9999;48.780;9.146;2022-09-23T06:43:32;8.90;99.90
7512;DHT22;9999;48.780;9.146;2022-09-23T06:46:00;9.00;99.90
7512;DHT22;9999;48.780;9.146;2022-09-23T06:48:29;9.10;99.90
7512;DHT22;9999;48.780;9.146;2022-09-23T06:50:58;9.20;99.90
7512;DHT22;9999;48.780;9.146;2022-09-23T06:53:27;9.20;99.90
7512;DHT22;9999;48.780;9.146;2022-09-23T06:55:57;9.30;99.90
7512;DHT22;9999;48.780;9.146;2022-09-23T06:58:26;9.40;99.90
7512;DHT22;9999;48.780;9.146;2022-09-23T07:00:52;9.50;99.90
7512;DHT22;9999;48.780;9.146;2022-09-23T07:03:19;9.70;99.90
7512;DHT22;9999;48.780;9.146;2022-09-23T07:05:46;9.80;99.90
7512;DHT22;9999;48.780;9.146;2022-09-23T07:08:13;10.10;99.90
7512;DHT22;9999;48.780;9.146;2022-09-23T07:10:40;10.30;99.90
7512;DHT22;9999;48.780;9.146;2022-09-23T07:13:07;10.50;99.90
7512;DHT22;9999;48.780;9.146;2022-09-23T07:15:35;10.70;99.90
7512;DHT22;9999;48.780;9.146;2022-09-23T07:18:02;11.10;99.90
7512;DHT22;9999;48.780;9.146;2022-09-23T07:20:29;11.40;99.90
7512;DHT22;9999;48.780;9.146;2022-09-23T07:22:56;11.70;99.90
7512;DHT22;9999;48.780;9.146;2022-09-23T07:25:23;11.80;99.90
7512;DHT22;9999;48.780;9.146;2022-09-23T07:27:50;11.90;99.90
7512;DHT22;9999;48.780;9.146;2022-09-23T07:30:17;12.10;99.90
7512;DHT22;9999;48.780;9.146;2022-09-23T07:32:45;12.20;99.90
7512;DHT22;9999;48.780;9.146;2022-09-23T07:35:12;12.40;99.90
7512;DHT22;9999;48.780;9.146;2022-09-23T07:37:39;12.40;99.90
7512;DHT22;9999;48.780;9.146;2022-09-23T07:40:06;12.50;99.90
7512;DHT22;9999;48.780;9.146;2022-09-23T07:42:34;12.70;99.90
7512;DHT22;9999;48.780;9.146;2022-09-23T07:45:01;12.60;99.90
7512;DHT22;9999;48.780;9.146;2022-09-23T07:47:27;12.50;99.90
7512;DHT22;9999;48.780;9.146;2022-09-23T07:50:00;12.60;99.90
7512;DHT22;9999;48.780;9.146;2022-09-23T07:52:26;12.50;99.90
7512;DHT22;9999;48.780;9.146;2022-09-23T07:54:53;12.40;99.90
7512;DHT22;9999;48.780;9.146;2022-09-23T07:57:20;12.50;99.90
7512;DHT22;9999;48.780;9.146;2022-09-23T07:59:47;12.50;99.90
7512;DHT22;9999;48.780;9.146;2022-09-23T08:02:13;12.50;99.90
7512;DHT22;9999;48.780;9.146;2022-09-23T08:04:41;12.40;99.90
7512;DHT22;9999;48.780;9.146;2022-09-23T08:07:11;12.50;99.90
7512;DHT22;9999;48.780;9.146;2022-09-23T08:09:41;12.40;99.90
7512;DHT22;9999;48.780;9.146;2022-09-23T08:12:09;12.40;99.90
7512;DHT22;9999;48.780;9.146;2022-09-23T08:14:36;12.50;99.90
7512;DHT22;9999;48.780;9.146;2022-09-23T08:17:04;12.50;99.90
7512;DHT22;9999;48.780;9.146;2022-09-23T08:19:31;12.50;99.90
7512;DHT22;9999;48.780;9.146;2022-09-23T08:21:58;12.60;99.90
7512;DHT22;9999;48.780;9.146;2022-09-23T08:24:26;12.60;99.90
7512;DHT22;9999;48.780;9.146;2022-09-23T08:26:54;12.60;99.90
7512;DHT22;9999;48.780;9.146;2022-09-23T08:29:22;12.70;99.90
7512;DHT22;9999;48.780;9.146;2022-09-23T08:31:50;12.60;99.90
7512;DHT22;9999;48.780;9.146;2022-09-23T08:34:19;12.70;99.90
7512;DHT22;9999;48.780;9.146;2022-09-23T08:36:46;12.80;99.90
7512;DHT22;9999;48.780;9.146;2022-09-23T08:39:14;12.70;99.90
7512;DHT22;9999;48.780;9.146;2022-09-23T08:41:49;12.80;99.90
7512;DHT22;9999;48.780;9.146;2022-09-23T08:44:27;12.90;99.90
7512;DHT22;9999;48.780;9.146;2022-09-23T08:47:07;12.90;99.90
7512;DHT22;9999;48.780;9.146;2022-09-23T08:49:40;13.10;99.90
7512;DHT22;9999;48.780;9.146;2022-09-23T08:52:13;13.10;99.90
7512;DHT22;9999;48.780;9.146;2022-09-23T08:54:43;13.20;99.90
7512;DHT22;9999;48.780;9.146;2022-09-23T08:57:21;13.30;99.90
7512;DHT22;9999;48.780;9.146;2022-09-23T08:59:52;13.40;99.90
7512;DHT22;9999;48.780;9.146;2022-09-23T09:02:20;13.50;99.90
7512;DHT22;9999;48.780;9.146;2022-09-23T09:04:51;13.50;99.90
7512;DHT22;9999;48.780;9.146;2022-09-23T09:07:21;13.50;99.90
7512;DHT22;9999;48.780;9.146;2022-09-23T09:09:57;13.50;99.90
7512;DHT22;9999;48.780;9.146;2022-09-23T09:12:31;13.60;99.90
7512;DHT22;9999;48.780;9.146;2022-09-23T09:15:02;13.70;99.90
7512;DHT22;9999;48.780;9.146;2022-09-23T09:17:35;13.80;99.90
7512;DHT22;9999;48.780;9.146;2022-09-23T09:20:12;13.90;99.90
7512;DHT22;9999;48.780;9.146;2022-09-23T09:22:51;14.00;99.90
7512;DHT22;9999;48.780;9.146;2022-09-23T09:25:23;14.10;99.90
7512;DHT22;9999;48.780;9.146;2022-09-23T09:27:53;14.10;99.90
7512;DHT22;9999;48.780;9.146;2022-09-23T09:30:22;14.20;99.90
7512;DHT22;9999;48.780;9.146;2022-09-23T09:32:55;14.30;99.90
7512;DHT22;9999;48.780;9.146;2022-09-23T09:35:29;14.40;99.90
7512;DHT22;9999;48.780;9.146;2022-09-23T09:37:59;14.50;99.90
7512;DHT22;9999;48.780;9.146;2022-09-23T09:40:27;14.70;99.90
7512;DHT22;9999;48.780;9.146;2022-09-23T09:42:55;14.70;99.90
7512;DHT22;9999;48.780;9.146;2022-09-23T09:45:28;14.80;99.90
7512;DHT22;9999;48.780;9.146;2022-09-23T09:48:05;15.00;99.90
7512;DHT22;9999;48.780;9.146;2022-09-23T09:50:44;15.10;99.90
7512;DHT22;9999;48.780;9.146;2022-09-23T09:53:19;15.20;99.90
7512;DHT22;9999;48.780;9.146;2022-09-23T09:56:01;15.40;99.90
7512;DHT22;9999;48.780;9.146;2022-09-23T09:58:34;15.50;99.90
7512;DHT22;9999;48.780;9.146;2022-09-23T10:01:06;15.60;99.90
7512;DHT22;9999;48.780;9.146;2022-09-23T10:03:37;15.60;99.90
7512;DHT22;9999;48.780;9.146;2022-09-23T10:06:19;15.70;99.90
7512;DHT22;9999;48.780;9.146;2022-09-23T10:09:02;15.80;99.90
7512;DHT22;9999;48.780;9.146;2022-09-23T10:11:30;15.90;99.90
7512;DHT22;9999;48.780;9.146;2022-09-23T10:14:08;16.10;99.90
7512;DHT22;9999;48.780;9.146;2022-09-23T10:16:37;16.10;99.90
7512;DHT22;9999;48.780;9.146;2022-09-23T10:19:13;16.20;99.90
7512;DHT22;9999;48.780;9.146;2022-09-23T10:21:40;16.20;99.90
7512;DHT22;9999;48.780;9.146;2022-09-23T10:24:17;16.40;99.90
7512;DHT22;9999;48.780;9.146;2022-09-23T10:26:52;16.60;99.90
7512;DHT22;9999;48.780;9.146;2022-09-23T10:29:28;16.50;99.90
7512;DHT22;9999;48.780;9.146;2022-09-23T10:32:17;16.50;99.90
7512;DHT22;9999;48.780;9.146;2022-09-23T10:34:47;16.60;99.90
7512;DHT22;9999;48.780;9.146;2022-09-23T10:37:19;16.90;99.90
7512;DHT22;9999;48.780;9.146;2022-09-23T10:39:49;16.90;99.90
7512;DHT22;9999;48.780;9.146;2022-09-23T10:42:58;17.00;99.90
7512;DHT22;9999;48.780;9.146;2022-09-23T10:45:48;17.30;99.90
7512;DHT22;9999;48.780;9.146;2022-09-23T10:48:43;17.70;99.90
7512;DHT22;9999;48.780;9.146;2022-09-23T10:51:17;17.90;99.90
7512;DHT22;9999;48.780;9.146;2022-09-23T10:53:54;18.10;99.90
7512;DHT22;9999;48.780;9.146;2022-09-23T10:56:29;18.30;99.90
7512;DHT22;9999;48.780;9.146;2022-09-23T11:02:01;18.60;99.90
7512;DHT22;9999;48.780;9.146;2022-09-23T11:04:51;18.50;99.90
7512;DHT22;9999;48.780;9.146;2022-09-23T11:07:25;18.10;99.90
7512;DHT22;9999;48.780;9.146;2022-09-23T11:10:12;18.10;99.90
7512;DHT22;9999;48.780;9.146;2022-09-23T11:12:49;18.10;99.90
7512;DHT22;9999;48.780;9.146;2022-09-23T11:15:30;18.20;99.90
7512;DHT22;9999;48.780;9.146;2022-09-23T11:18:32;18.40;99.90
7512;DHT22;9999;48.780;9.146;2022-09-23T11:21:19;18.30;99.90
7512;DHT22;9999;48.780;9.146;2022-09-23T11:24:03;18.40;99.90
7512;DHT22;9999;48.780;9.146;2022-09-23T11:26:46;18.80;99.90
7512;DHT22;9999;48.780;9.146;2022-09-23T11:29:31;19.10;99.90
7512;DHT22;9999;48.780;9.146;2022-09-23T11:32:18;19.30;99.90
7512;DHT22;9999;48.780;9.146;2022-09-23T11:34:59;19.20;99.90
7512;DHT22;9999;48.780;9.146;2022-09-23T11:37:30;19.40;99.90
7512;DHT22;9999;48.780;9.146;2022-09-23T11:40:01;19.30;99.90
7512;DHT22;9999;48.780;9.146;2022-09-23T11:42:34;19.40;99.90
7512;DHT22;9999;48.780;9.146;2022-09-23T11:45:06;19.60;99.90
7512;DHT22;9999;48.780;9.146;2022-09-23T11:47:35;19.70;99.90
7512;DHT22;9999;48.780;9.146;2022-09-23T11:50:16;19.70;99.90
7512;DHT22;9999;48.780;9.146;2022-09-23T11:52:46;19.70;99.90
7512;DHT22;9999;48.780;9.146;2022-09-23T11:55:17;19.90;99.90
7512;DHT22;9999;48.780;9.146;2022-09-23T11:57:48;20.10;99.90
7512;DHT22;9999;48.780;9.146;2022-09-23T12:00:17;20.20;99.90
7512;DHT22;9999;48.780;9.146;2022-09-23T12:02:58;19.90;99.90
7512;DHT22;9999;48.780;9.146;2022-09-23T12:05:32;19.90;99.90
7512;DHT22;9999;48.780;9.146;2022-09-23T12:08:04;20.00;99.90
7512;DHT22;9999;48.780;9.146;2022-09-23T12:10:40;20.10;99.90
7512;DHT22;9999;48.780;9.146;2022-09-23T12:13:12;20.10;99.90
7512;DHT22;9999;48.780;9.146;2022-09-23T12:15:50;20.40;99.90
7512;DHT22;9999;48.780;9.146;2022-09-23T12:18:39;20.50;99.90
7512;DHT22;9999;48.780;9.146;2022-09-23T12:21:38;20.60;99.90
7512;DHT22;9999;48.780;9.146;2022-09-23T12:24:45;20.00;99.90
7512;DHT22;9999;48.780;9.146;2022-09-23T12:27:19;20.00;99.90
7512;DHT22;9999;48.780;9.146;2022-09-23T12:29:52;20.10;99.90
7512;DHT22;9999;48.780;9.146;2022-09-23T12:32:20;20.10;99.90
7512;DHT22;9999;48.780;9.146;2022-09-23T12:34:50;20.20;99.90
7512;DHT22;9999;48.780;9.146;2022-09-23T12:37:25;20.20;99.90
7512;DHT22;9999;48.780;9.146;2022-09-23T12:39:55;20.00;99.70
7512;DHT22;9999;48.780;9.146;2022-09-23T12:42:24;19.90;99.70
7512;DHT22;9999;48.780;9.146;2022-09-23T12:44:51;19.60;99.90
7512;DHT22;9999;48.780;9.146;2022-09-23T12:47:37;19.80;99.90
7512;DHT22;9999;48.780;9.146;2022-09-23T12:56:21;20.40;99.90
7512;DHT22;9999;48.780;9.146;2022-09-23T12:58:59;20.40;99.90
7512;DHT22;9999;48.780;9.146;2022-09-23T13:01:27;20.10;99.90
7512;DHT22;9999;48.780;9.146;2022-09-23T13:04:00;19.80;99.90
7512;DHT22;9999;48.780;9.146;2022-09-23T13:06:54;19.80;99.90
7512;DHT22;9999;48.780;9.146;2022-09-23T13:09:26;19.90;99.90
7512;DHT22;9999;48.780;9.146;2022-09-23T13:11:57;19.60;99.90
7512;DHT22;9999;48.780;9.146;2022-09-23T13:14:26;19.60;99.90
7512;DHT22;9999;48.780;9.146;2022-09-23T13:16:54;19.50;99.60
7512;DHT22;9999;48.780;9.146;2022-09-23T13:19:43;19.70;99.90
7512;DHT22;9999;48.780;9.146;2022-09-23T13:22:11;19.90;99.90
7512;DHT22;9999;48.780;9.146;2022-09-23T13:24:43;19.70;99.90
7512;DHT22;9999;48.780;9.146;2022-09-23T13:27:19;19.60;99.90
7512;DHT22;9999;48.780;9.146;2022-09-23T13:29:52;19.40;99.90
7512;DHT22;9999;48.780;9.146;2022-09-23T13:32:20;19.40;99.90
7512;DHT22;9999;48.780;9.146;2022-09-23T13:34:55;19.40;99.90
7512;DHT22;9999;48.780;9.146;2022-09-23T13:37:24;19.50;99.90
7512;DHT22;9999;48.780;9.146;2022-09-23T13:39:51;19.40;99.90
7512;DHT22;9999;48.780;9.146;2022-09-23T13:42:24;19.40;99.90
7512;DHT22;9999;48.780;9.146;2022-09-23T13:44:53;19.40;99.90
7512;DHT22;9999;48.780;9.146;2022-09-23T13:47:22;19.20;99.90
7512;DHT22;9999;48.780;9.146;2022-09-23T13:49:52;19.10;99.90
7512;DHT22;9999;48.780;9.146;2022-09-23T13:52:23;19.10;99.90
7512;DHT22;9999;48.780;9.146;2022-09-23T13:54:51;19.20;99.90
7512;DHT22;9999;48.780;9.146;2022-09-23T13:57:26;19.30;99.90
7512;DHT22;9999;48.780;9.146;2022-09-23T13:59:53;19.30;99.90
7512;DHT22;9999;48.780;9.146;2022-09-23T14:02:25;19.30;99.90
7512;DHT22;9999;48.780;9.146;2022-09-23T14:04:55;19.40;99.90
7512;DHT22;9999;48.780;9.146;2022-09-23T14:07:23;19.50;99.90
7512;DHT22;9999;48.780;9.146;2022-09-23T14:09:53;19.40;99.90
7512;DHT22;9999;48.780;9.146;2022-09-23T14:12:20;19.60;99.90
7512;DHT22;9999;48.780;9.146;2022-09-23T14:14:50;19.50;99.90
7512;DHT22;9999;48.780;9.146;2022-09-23T14:17:20;19.50;99.90
7512;DHT22;9999;48.780;9.146;2022-09-23T14:19:48;19.30;99.90
7512;DHT22;9999;48.780;9.146;2022-09-23T14:22:22;19.20;99.90
7512;DHT22;9999;48.780;9.146;2022-09-23T14:24:49;19.20;99.90
7512;DHT22;9999;48.780;9.146;2022-09-23T14:27:18;19.30;99.90
7512;DHT22;9999;48.780;9.146;2022-09-23T14:29:47;19.20;99.90
7512;DHT22;9999;48.780;9.146;2022-09-23T14:32:17;19.10;99.90
7512;DHT22;9999;48.780;9.146;2022-09-23T14:34:48;19.20;99.90
7512;DHT22;9999;48.780;9.146;2022-09-23T14:37:27;19.20;99.90
7512;DHT22;9999;48.780;9.146;2022-09-23T14:40:14;18.90;99.90
7512;DHT22;9999;48.780;9.146;2022-09-23T14:42:45;18.70;99.90
7512;DHT22;9999;48.780;9.146;2022-09-23T14:45:18;18.90;99.90
7512;DHT22;9999;48.780;9.146;2022-09-23T14:47:49;18.90;99.90
7512;DHT22;9999;48.780;9.146;2022-09-23T14:50:20;19.00;99.90
7512;DHT22;9999;48.780;9.146;2022-09-23T14:55:48;18.90;99.90
7512;DHT22;9999;48.780;9.146;2022-09-23T14:58:18;18.90;99.90
7512;DHT22;9999;48.780;9.146;2022-09-23T15:00:50;18.90;99.90
7512;DHT22;9999;48.780;9.146;2022-09-23T15:03:20;18.90;99.90
7512;DHT22;9999;48.780;9.146;2022-09-23T15:05:48;18.80;99.90
7512;DHT22;9999;48.780;9.146;2022-09-23T15:08:18;18.80;99.90
7512;DHT22;9999;48.780;9.146;2022-09-23T15:10:46;18.90;99.90
7512;DHT22;9999;48.780;9.146;2022-09-23T15:13:15;18.90;99.90
7512;DHT22;9999;48.780;9.146;2022-09-23T15:15:43;18.70;99.90
7512;DHT22;9999;48.780;9.146;2022-09-23T15:18:15;18.60;99.90
7512;DHT22;9999;48.780;9.146;2022-09-23T15:20:49;18.40;99.90
7512;DHT22;9999;48.780;9.146;2022-09-23T15:23:32;18.30;99.90
7512;DHT22;9999;48.780;9.146;2022-09-23T15:26:02;18.20;99.90
7512;DHT22;9999;48.780;9.146;2022-09-23T15:28:30;18.30;99.90
7512;DHT22;9999;48.780;9.146;2022-09-23T15:30:57;18.40;99.90
7512;DHT22;9999;48.780;9.146;2022-09-23T15:33:23;18.40;99.90
7512;DHT22;9999;48.780;9.146;2022-09-23T15:35:54;18.50;99.90
7512;DHT22;9999;48.780;9.146;2022-09-23T15:38:21;18.50;99.90
7512;DHT22;9999;48.780;9.146;2022-09-23T15:40:47;18.30;99.90
7512;DHT22;9999;48.780;9.146;2022-09-23T15:43:15;18.30;99.90
7512;DHT22;9999;48.780;9.146;2022-09-23T15:45:45;18.30;99.90
7512;DHT22;9999;48.780;9.146;2022-09-23T15:48:13;18.30;99.90
7512;DHT22;9999;48.780;9.146;2022-09-23T15:50:41;18.20;99.90
7512;DHT22;9999;48.780;9.146;2022-09-23T15:53:14;18.10;99.90
7512;DHT22;9999;48.780;9.146;2022-09-23T15:55:42;18.10;99.90
7512;DHT22;9999;48.780;9.146;2022-09-23T15:58:09;18.00;99.90
7512;DHT22;9999;48.780;9.146;2022-09-23T16:00:36;17.90;99.90
7512;DHT22;9999;48.780;9.146;2022-09-23T16:03:03;18.00;99.90
7512;DHT22;9999;48.780;9.146;2022-09-23T16:05:34;18.00;99.90
7512;DHT22;9999;48.780;9.146;2022-09-23T16:08:02;17.90;99.90
7512;DHT22;9999;48.780;9.146;2022-09-23T16:10:31;17.80;99.90
7512;DHT22;9999;48.780;9.146;2022-09-23T16:13:00;17.80;99.90
7512;DHT22;9999;48.780;9.146;2022-09-23T16:15:28;17.70;99.90
7512;DHT22;9999;48.780;9.146;2022-09-23T16:17:55;17.70;99.90
7512;DHT22;9999;48.780;9.146;2022-09-23T16:20:22;17.50;99.90
7512;DHT22;9999;48.780;9.146;2022-09-23T16:22:53;17.50;99.90
7512;DHT22;9999;48.780;9.146;2022-09-23T16:25:22;17.60;99.90
7512;DHT22;9999;48.780;9.146;2022-09-23T16:27:54;17.50;99.90
7512;DHT22;9999;48.780;9.146;2022-09-23T16:30:21;17.50;99.90
7512;DHT22;9999;48.780;9.146;2022-09-23T16:32:48;17.40;99.90
7512;DHT22;9999;48.780;9.146;2022-09-23T16:35:16;17.30;99.90
7512;DHT22;9999;48.780;9.146;2022-09-23T16:37:44;17.20;99.90
7512;DHT22;9999;48.780;9.146;2022-09-23T16:40:12;17.10;99.90
7512;DHT22;9999;48.780;9.146;2022-09-23T16:42:40;17.10;99.90
7512;DHT22;9999;48.780;9.146;2022-09-23T16:45:10;17.10;99.90
7512;DHT22;9999;48.780;9.146;2022-09-23T16:47:41;17.00;99.90